createdAt,value
2023-04-15T00:01:12.080Z,9.17
2023-04-15T00:06:15.180Z,9.71
2023-04-15T00:11:18.668Z,9.72
2023-04-15T00:16:21.610Z,9.40
2023-04-15T00:21:24.237Z,8.83
2023-04-15T00:26:27.320Z,8.58
2023-04-15T00:31:33.202Z,8.55
2023-04-15T00:36:36.827Z,9.09
2023-04-15T00:41:39.976Z,9.69
2023-04-15T00:46:43.597Z,9.27
2023-04-15T00:51:47.146Z,8.85
2023-04-15T00:56:49.778Z,8.61
2023-04-15T01:01:53.348Z,8.56
2023-04-15T01:06:56.280Z,8.64
2023-04-15T01:11:59.558Z,8.41
2023-04-15T01:17:02.517Z,8.82
2023-04-15T01:22:05.856Z,9.05
2023-04-15T01:27:09.291Z,9.45
2023-04-15T01:32:12.271Z,9.46
2023-04-15T01:37:14.989Z,8.69
2023-04-15T01:42:19.302Z,8.15
2023-04-15T01:47:22.729Z,8.38
2023-04-15T01:52:25.512Z,8.62
2023-04-15T01:57:28.207Z,8.30
2023-04-15T02:02:31.169Z,7.98
2023-04-15T02:07:33.989Z,8.18
2023-04-15T02:12:38.140Z,8.12
2023-04-15T02:17:46.129Z,8.12
2023-04-15T02:22:51.120Z,8.17
2023-04-15T02:27:53.868Z,8.41
2023-04-15T02:32:56.605Z,8.32
2023-04-15T02:38:01.245Z,8.62
2023-04-15T02:43:05.506Z,7.90
2023-04-15T02:48:08.581Z,7.61
2023-04-15T02:53:13.514Z,7.53
2023-04-15T02:58:16.556Z,7.28
2023-04-15T03:03:19.190Z,7.32
2023-04-15T03:08:21.835Z,7.79
2023-04-15T03:13:24.717Z,8.47
2023-04-15T03:18:27.440Z,8.27
2023-04-15T03:23:31.422Z,7.85
2023-04-15T03:28:34.297Z,7.61
2023-04-15T03:33:38.305Z,7.32
2023-04-15T03:38:41.144Z,6.99
2023-04-15T03:43:43.693Z,6.95
2023-04-15T03:48:47.052Z,7.13
2023-04-15T03:53:49.784Z,7.34
2023-04-15T03:58:52.359Z,7.18
2023-04-15T04:03:55.113Z,7.34
2023-04-15T04:08:57.972Z,7.34
2023-04-15T04:14:00.608Z,7.23
2023-04-15T04:19:03.386Z,7.04
2023-04-15T04:24:06.565Z,7.03
2023-04-15T04:29:09.263Z,7.15
2023-04-15T04:34:11.852Z,7.13
2023-04-15T04:39:14.610Z,7.06
2023-04-15T04:44:17.168Z,7.22
2023-04-15T04:49:19.681Z,7.40
2023-04-15T04:54:22.556Z,6.81
2023-04-15T04:59:25.391Z,6.82
2023-04-15T05:04:27.965Z,6.89
2023-04-15T05:09:32.592Z,7.50
2023-04-15T05:14:35.487Z,7.08
2023-04-15T05:19:38.069Z,7.28
2023-04-15T05:24:40.807Z,7.11
2023-04-15T05:29:43.365Z,6.81
2023-04-15T05:34:46.012Z,6.87
2023-04-15T05:39:51.619Z,6.93
2023-04-15T05:44:54.120Z,7.77
2023-04-15T05:49:57.171Z,8.54
2023-04-15T05:54:59.924Z,8.98
2023-04-15T06:00:02.478Z,9.59
2023-04-15T06:05:12.264Z,10.03
2023-04-15T06:10:14.784Z,10.53
2023-04-15T06:15:17.360Z,10.89
2023-04-15T06:20:20.455Z,10.91
2023-04-15T06:25:23.306Z,11.03
2023-04-15T06:30:26.143Z,11.30
2023-04-15T06:35:28.870Z,11.72
2023-04-15T06:40:31.473Z,12.02
2023-04-15T06:45:34.291Z,12.33
2023-04-15T06:50:36.963Z,12.60
2023-04-15T06:55:40.394Z,12.52
2023-04-15T07:00:43.025Z,12.78
2023-04-15T07:05:46.017Z,13.48
2023-04-15T07:10:48.639Z,13.69
2023-04-15T07:15:51.235Z,13.68
2023-04-15T07:20:53.886Z,13.48
2023-04-15T07:25:57.232Z,13.80
2023-04-15T07:31:00.066Z,14.52
2023-04-15T07:36:02.882Z,15.21
2023-04-15T07:41:05.727Z,15.17
2023-04-15T07:46:08.555Z,15.19
2023-04-15T07:51:11.148Z,15.03
2023-04-15T07:56:13.752Z,14.57
2023-04-15T08:01:16.740Z,14.33
2023-04-15T08:06:19.751Z,14.61
2023-04-15T08:11:23.570Z,15.19
2023-04-15T08:16:30.344Z,16.46
2023-04-15T08:21:33.266Z,17.33
2023-04-15T08:26:36.101Z,17.38
2023-04-15T08:31:38.806Z,17.36
2023-04-15T08:36:41.914Z,18.10
2023-04-15T08:41:52.192Z,19.16
2023-04-15T08:46:57.389Z,19.68
2023-04-15T08:52:00.736Z,19.80
2023-04-15T08:57:04.076Z,21.62
2023-04-15T09:02:07.563Z,22.19
2023-04-15T09:07:10.312Z,21.95
2023-04-15T09:12:13.431Z,22.96
2023-04-15T09:17:21.281Z,23.77
2023-04-15T09:22:23.884Z,23.91
2023-04-15T09:27:26.788Z,24.05
2023-04-15T09:32:29.373Z,24.39
2023-04-15T09:37:38.301Z,23.58
2023-04-15T09:43:02.314Z,22.03
2023-04-15T09:48:22.728Z,22.57
2023-04-15T09:53:26.702Z,22.66
2023-04-15T09:58:31.895Z,21.04
2023-04-15T10:03:37.863Z,20.26
2023-04-15T10:08:41.960Z,20.02
2023-04-15T10:13:45.329Z,19.90
2023-04-15T10:18:55.016Z,20.20
2023-04-15T10:23:58.763Z,19.82
2023-04-15T10:29:01.680Z,19.58
2023-04-15T10:34:06.742Z,21.46
2023-04-15T10:39:34.704Z,22.20
2023-04-15T10:44:42.620Z,22.85
2023-04-15T10:49:50.983Z,23.48
2023-04-15T10:55:18.106Z,22.23
2023-04-15T11:00:24.784Z,20.68
2023-04-15T11:05:42.835Z,19.55
2023-04-15T11:10:45.699Z,18.95
2023-04-15T11:15:49.806Z,18.52
2023-04-15T11:21:04.507Z,20.69
2023-04-15T11:26:10.013Z,23.53
2023-04-15T11:31:15.251Z,23.81
2023-04-15T11:36:18.170Z,22.26
2023-04-15T11:41:27.309Z,21.74
2023-04-15T11:46:31.862Z,20.83
2023-04-15T11:51:35.835Z,19.60
2023-04-15T11:56:38.935Z,18.58
2023-04-15T12:01:47.034Z,18.48
2023-04-15T12:06:49.794Z,18.80
2023-04-15T12:11:57.598Z,19.21
2023-04-15T12:17:07.155Z,20.97
2023-04-15T12:22:11.910Z,20.37
2023-04-15T12:27:17.171Z,20.44
2023-04-15T12:32:21.198Z,20.80
2023-04-15T12:37:24.183Z,19.52
2023-04-15T12:42:26.807Z,18.67
2023-04-15T12:47:29.500Z,18.11
2023-04-15T12:52:32.093Z,17.27
2023-04-15T12:57:34.651Z,16.85
2023-04-15T13:02:37.911Z,16.81
2023-04-15T13:07:41.081Z,16.65
2023-04-15T13:12:43.744Z,16.98
2023-04-15T13:17:46.818Z,17.04
2023-04-15T13:22:49.432Z,16.81
2023-04-15T13:27:51.938Z,16.69
2023-04-15T13:32:54.657Z,16.55
2023-04-15T13:37:57.544Z,16.69
2023-04-15T13:43:00.308Z,16.89
2023-04-15T13:48:03.274Z,17.28
2023-04-15T13:53:06.321Z,17.80
2023-04-15T13:58:09.893Z,17.62
2023-04-15T14:03:12.915Z,17.33
2023-04-15T14:08:15.589Z,17.40
2023-04-15T14:13:19.813Z,17.32
2023-04-15T14:18:22.532Z,17.29
2023-04-15T14:23:25.054Z,17.08
2023-04-15T14:28:27.628Z,17.09
2023-04-15T14:33:30.233Z,17.28
2023-04-15T14:38:38.606Z,17.20
2023-04-15T14:43:41.314Z,17.08
2023-04-15T14:48:43.992Z,16.63
2023-04-15T14:53:47.137Z,16.59
2023-04-15T14:58:50.560Z,16.59
2023-04-15T15:03:53.490Z,16.63
2023-04-15T15:08:56.222Z,16.51
2023-04-15T15:13:59.502Z,16.57
2023-04-15T15:19:02.749Z,16.42
2023-04-15T15:24:06.277Z,16.32
2023-04-15T15:29:09.546Z,15.79
2023-04-15T15:34:12.217Z,15.49
2023-04-15T15:39:14.821Z,15.24
2023-04-15T15:44:17.705Z,15.06
2023-04-15T15:49:20.386Z,14.99
2023-04-15T15:54:22.990Z,15.07
2023-04-15T15:59:25.927Z,15.12
2023-04-15T16:04:29.073Z,14.89
2023-04-15T16:09:32.710Z,15.19
2023-04-15T16:14:35.551Z,15.37
2023-04-15T16:19:38.144Z,15.67
2023-04-15T16:24:40.807Z,16.06
2023-04-15T16:29:43.542Z,16.05
2023-04-15T16:34:46.120Z,15.61
2023-04-15T16:39:48.954Z,15.22
2023-04-15T16:44:51.638Z,14.70
2023-04-15T16:49:54.426Z,14.30
2023-04-15T16:54:57.233Z,14.15
2023-04-15T17:00:00.122Z,14.32
2023-04-15T17:05:03.440Z,14.24
2023-04-15T17:10:06.777Z,13.55
2023-04-15T17:15:10.050Z,13.49
2023-04-15T17:20:12.886Z,13.06
2023-04-15T17:25:16.211Z,13.14
2023-04-15T17:30:19.386Z,13.48
2023-04-15T17:35:23.609Z,13.47
2023-04-15T17:40:26.508Z,13.37
2023-04-15T17:45:30.345Z,13.22
2023-04-15T17:50:33.112Z,12.84
2023-04-15T17:55:36.111Z,12.83
2023-04-15T18:00:38.800Z,12.61
2023-04-15T18:05:42.620Z,12.38
2023-04-15T18:10:45.426Z,11.88
2023-04-15T18:15:49.667Z,12.07
2023-04-15T18:20:52.433Z,12.38
2023-04-15T18:25:55.183Z,12.81
2023-04-15T18:30:58.295Z,12.42
2023-04-15T18:36:02.733Z,12.37
2023-04-15T18:41:05.869Z,12.44
2023-04-15T18:46:12.102Z,12.84
2023-04-15T18:51:15.319Z,12.69
2023-04-15T18:56:17.890Z,12.51
2023-04-15T19:01:20.525Z,12.51
2023-04-15T19:06:23.670Z,12.67
2023-04-15T19:11:26.780Z,12.37
2023-04-15T19:16:30.622Z,12.48
2023-04-15T19:21:33.377Z,12.44
2023-04-15T19:26:37.405Z,12.57
2023-04-15T19:31:40.122Z,12.59
2023-04-15T19:36:42.941Z,12.70
2023-04-15T19:41:46.111Z,12.32
2023-04-15T19:46:50.249Z,11.96
2023-04-15T19:51:52.837Z,12.06
2023-04-15T19:56:55.359Z,11.94
2023-04-15T20:01:58.391Z,12.07
2023-04-15T20:07:01.240Z,12.00
2023-04-15T20:12:48.295Z,12.49
2023-04-15T20:17:26.686Z,12.35
2023-04-15T20:22:29.408Z,12.48
2023-04-15T20:27:32.128Z,12.38
2023-04-15T20:32:38.834Z,12.41
2023-04-15T20:37:45.396Z,12.62
2023-04-15T20:42:48.117Z,13.48
2023-04-15T20:47:51.062Z,12.81
2023-04-15T20:52:53.723Z,13.45
2023-04-15T20:57:57.164Z,13.14
2023-04-15T21:03:00.068Z,12.81
2023-04-15T21:08:02.901Z,12.70
2023-04-15T21:13:06.978Z,12.68
2023-04-15T21:18:09.610Z,12.79
2023-04-15T21:23:13.141Z,12.26
2023-04-15T21:28:15.795Z,12.45
2023-04-15T21:33:20.524Z,12.43
2023-04-15T21:38:23.601Z,12.78
2023-04-15T21:43:26.434Z,12.43
2023-04-15T21:48:29.295Z,12.42
2023-04-15T21:53:31.826Z,12.53
2023-04-15T21:58:34.669Z,12.83
2023-04-15T22:03:37.554Z,12.73
2023-04-15T22:08:55.345Z,12.67
2023-04-15T22:14:00.278Z,12.58
2023-04-15T22:19:02.988Z,12.55
2023-04-15T22:24:36.857Z,12.61
2023-04-15T22:29:28.849Z,12.58
2023-04-15T22:34:31.648Z,12.42
2023-04-15T22:39:37.394Z,12.60
2023-04-15T22:44:40.174Z,12.70
2023-04-15T22:49:42.872Z,12.57
2023-04-15T22:54:45.675Z,12.62
2023-04-15T22:59:48.481Z,12.98
2023-04-15T23:04:51.106Z,12.66
2023-04-15T23:09:53.858Z,12.68
2023-04-15T23:14:56.775Z,12.93
2023-04-15T23:19:59.437Z,12.55
2023-04-15T23:25:02.236Z,12.64
2023-04-15T23:30:05.266Z,12.26
2023-04-15T23:35:08.476Z,12.18
2023-04-15T23:40:11.772Z,12.51
2023-04-15T23:45:14.317Z,12.48
2023-04-15T23:50:17.179Z,12.77
2023-04-15T23:55:19.729Z,13.20
